Azalea Ace — A8ZJ6 — position and weather

sailwx.info

Track history (hours):
 
Tides and Currents Weather Stations Pressure Air Temp Water Temp Dewpoint Dewpoint Depression Visibility Wind Speed Wind Dir Waves Ship Positions

Azalea Ace

Last reported at 2016-May-30 06:32 UTC. Time now 2016-May-30 06:51 UTC.
Position N 35°27' E 139°41'.

Length 180 m; draft 7.7 m.

Type: Cargo ship. MMSI: 636015228.

Date/timePositionNaut miles runAvg speedWind from/ knotsBaromVisibWave heightAir tempDewpointWater temp
2016-May-30 06:32N 35°27' E 139°41'0 0.0
2016-May-30 05:32N 35°27' E 139°41'0 0.0
2016-May-30 04:32N 35°27' E 139°41'0 0.0
2016-May-30 03:32N 35°27' E 139°41'0 0.0
2016-May-30 02:32N 35°27' E 139°41'0 0.0
2016-May-30 01:32N 35°27' E 139°41'0 0.0
2016-May-30 00:32N 35°27' E 139°41'0 0.0
2016-May-29 23:32N 35°27' E 139°41'0 0.0
2016-May-29 22:32N 35°27' E 139°41'1 0.5
2016-May-29 21:33N 35°27' E 139°42'5 5.3
2016-May-29 20:33N 35°22' E 139°43'1211.6
2016-May-29 19:33N 35°10' E 139°47'7 6.7
2016-May-29 18:33N 35°04' E 139°45'1010.2
2016-May-29 17:33N 34°54' E 139°42'7 5.9
2016-May-29 16:19N 34°47' E 139°41'0 0.2
2016-May-29 15:31N 34°47' E 139°42'0 0.3
2016-May-29 14:31N 34°47' E 139°42'1 0.5
2016-May-29 13:31N 34°46' E 139°42'1 0.7
2016-May-29 12:31N 34°46' E 139°43'1 0.7
2016-May-29 11:28N 34°46' E 139°44'1 0.7
2016-May-29 10:25N 34°45' E 139°45'1 0.8
2016-May-29 09:22N 34°45' E 139°45'1 0.7
2016-May-29 08:33N 34°44' E 139°45'8 8.0
2016-May-29 07:33N 34°47' E 139°36'3 2.3
2016-May-29 06:27N 34°45' E 139°35'2211.2
2016-May-29 04:27N 34°33' E 139°12'6512.8
2016-May-28 23:24N 34°05' E 138°02'15310.7
2016-May-28 09:07N 33°41' E 134°60'2211.8
2016-May-28 07:17N 34°02' E 134°56'912.0
2016-May-28 06:34N 34°11' E 134°57'1414.3
2016-May-28 05:33N 34°25' E 135°03'1716.8
2016-May-28 04:33N 34°35' E 135°19'7 6.3
2016-May-28 03:31N 34°40' E 135°25'0 0.0
2016-May-28 02:31N 34°40' E 135°25'0 0.0
2016-May-28 01:31N 34°40' E 135°25'0 0.0
2016-May-28 00:25N 34°40' E 135°25'0 0.0
2016-May-27 23:31N 34°40' E 135°25'0 0.0
2016-May-27 22:31N 34°40' E 135°25'0 0.0
2016-May-27 21:25N 34°40' E 135°25'0 0.0
2016-May-27 20:25N 34°40' E 135°25'0 0.0
2016-May-27 19:25N 34°40' E 135°25'0 0.0
2016-May-27 18:25N 34°40' E 135°25'0 0.0
2016-May-27 17:31N 34°40' E 135°25'0 0.0
2016-May-27 16:31N 34°40' E 135°25'0 0.0
2016-May-27 15:31N 34°40' E 135°25'0 0.0
2016-May-27 14:31N 34°40' E 135°25'0 0.0
2016-May-27 13:31N 34°40' E 135°25'0 0.0
2016-May-27 12:31N 34°40' E 135°25'0 0.0
2016-May-27 11:31N 34°40' E 135°25'0 0.0
2016-May-27 10:31N 34°40' E 135°25'0 0.0
2016-May-27 09:31N 34°40' E 135°25'0 0.0
2016-May-27 08:31N 34°40' E 135°25'0 0.0
2016-May-27 07:32N 34°40' E 135°25'9 9.3
2016-May-27 06:33N 34°33' E 135°17'1818.0
2016-May-27 05:34N 34°20' E 135°02'1313.3
2016-May-27 04:33N 34°07' E 134°60'  
Track history (hours):
 
Tides and Currents Weather Stations Pressure Air Temp Water Temp Dewpoint Dewpoint Depression Visibility Wind Speed Wind Dir Waves Ship Positions

Azalea Ace

Last reported at 2016-May-30 06:32 UTC. Time now 2016-May-30 06:51 UTC.
Position N 35°27' E 139°41'.

Length 180 m; draft 7.7 m.

Type: Cargo ship. MMSI: 636015228.

Date/timePositionNaut miles runAvg speedWind from/ knotsBaromVisibWave heightAir tempDewpointWater temp
2016-May-30 06:32N 35°27' E 139°41'0 0.0
2016-May-30 05:32N 35°27' E 139°41'0 0.0
2016-May-30 04:32N 35°27' E 139°41'0 0.0
2016-May-30 03:32N 35°27' E 139°41'0 0.0
2016-May-30 02:32N 35°27' E 139°41'0 0.0
2016-May-30 01:32N 35°27' E 139°41'0 0.0
2016-May-30 00:32N 35°27' E 139°41'0 0.0
2016-May-29 23:32N 35°27' E 139°41'0 0.0
2016-May-29 22:32N 35°27' E 139°41'1 0.5
2016-May-29 21:33N 35°27' E 139°42'5 5.3
2016-May-29 20:33N 35°22' E 139°43'1211.6
2016-May-29 19:33N 35°10' E 139°47'7 6.7
2016-May-29 18:33N 35°04' E 139°45'1010.2
2016-May-29 17:33N 34°54' E 139°42'7 5.9
2016-May-29 16:19N 34°47' E 139°41'0 0.2
2016-May-29 15:31N 34°47' E 139°42'0 0.3
2016-May-29 14:31N 34°47' E 139°42'1 0.5
2016-May-29 13:31N 34°46' E 139°42'1 0.7
2016-May-29 12:31N 34°46' E 139°43'1 0.7
2016-May-29 11:28N 34°46' E 139°44'1 0.7
2016-May-29 10:25N 34°45' E 139°45'1 0.8
2016-May-29 09:22N 34°45' E 139°45'1 0.7
2016-May-29 08:33N 34°44' E 139°45'8 8.0
2016-May-29 07:33N 34°47' E 139°36'3 2.3
2016-May-29 06:27N 34°45' E 139°35'2211.2
2016-May-29 04:27N 34°33' E 139°12'6512.8
2016-May-28 23:24N 34°05' E 138°02'15310.7
2016-May-28 09:07N 33°41' E 134°60'2211.8
2016-May-28 07:17N 34°02' E 134°56'912.0
2016-May-28 06:34N 34°11' E 134°57'1414.3
2016-May-28 05:33N 34°25' E 135°03'1716.8
2016-May-28 04:33N 34°35' E 135°19'7 6.3
2016-May-28 03:31N 34°40' E 135°25'0 0.0
2016-May-28 02:31N 34°40' E 135°25'0 0.0
2016-May-28 01:31N 34°40' E 135°25'0 0.0
2016-May-28 00:25N 34°40' E 135°25'0 0.0
2016-May-27 23:31N 34°40' E 135°25'0 0.0
2016-May-27 22:31N 34°40' E 135°25'0 0.0
2016-May-27 21:25N 34°40' E 135°25'0 0.0
2016-May-27 20:25N 34°40' E 135°25'0 0.0
2016-May-27 19:25N 34°40' E 135°25'0 0.0
2016-May-27 18:25N 34°40' E 135°25'0 0.0
2016-May-27 17:31N 34°40' E 135°25'0 0.0
2016-May-27 16:31N 34°40' E 135°25'0 0.0
2016-May-27 15:31N 34°40' E 135°25'0 0.0
2016-May-27 14:31N 34°40' E 135°25'0 0.0
2016-May-27 13:31N 34°40' E 135°25'0 0.0
2016-May-27 12:31N 34°40' E 135°25'0 0.0
2016-May-27 11:31N 34°40' E 135°25'0 0.0
2016-May-27 10:31N 34°40' E 135°25'0 0.0
2016-May-27 09:31N 34°40' E 135°25'0 0.0
2016-May-27 08:31N 34°40' E 135°25'0 0.0
2016-May-27 07:32N 34°40' E 135°25'9 9.3
2016-May-27 06:33N 34°33' E 135°17'1818.0
2016-May-27 05:34N 34°20' E 135°02'1313.3
2016-May-27 04:33N 34°07' E 134°60'  

Dump ship's entire track history